EW7600 Weather Reports


Display with metric or nautical units.
time (UTC)temp
F
wind
direction
speed
MPH
gust
MPH
rain 1hr
in
rain 24hr
in
rain mn
in
humidity
%
barometer
mb
20210922143113 80 178 2.0 4.0 0.00 0.00 0.00 1 1015.3
20210922141559 78 147 2.0 4.0 0.00 0.00 0.00 1 1015.3
20210922140118 77 234 1.0 4.0 0.00 0.00 0.00 1 1015.4
20210922134621 76 236 1.0 4.0 0.00 0.00 0.00 1 1015.3
20210922133049 75 198 1.0 4.0 0.00 0.00 0.00 1 1015.1
20210922131533 75 186 0.0 4.0 0.00 0.00 0.00 1 1015.1
20210922130139 74 96 0.0 1.0 0.00 0.00 0.00 1 1015.2
20210922124517 74 96 0.0 1.0 0.00 0.00 0.00 1 1015.2
20210922123031 73 96 0.0 2.0 0.00 0.00 0.00 1 1015.2
20210922121511 72 96 0.0 0.0 0.00 0.00 0.00 1 1015.1
20210922120005 72 96 0.0 0.0 0.00 0.00 0.00 1 1014.8
20210922113133 72 96 0.0 0.0 0.00 0.00 0.00 1 1014.9
20210922111710 72 96 0.0 0.0 0.00 0.00 0.00 1 1014.7
20210922110124 72 96 0.0 0.0 0.00 0.00 0.00 1 1014.6
20210922104625 72 96 0.0 0.0 0.00 0.01 0.00 1 1014.6
20210922103204 72 96 0.0 0.0 0.00 0.01 0.00 1 1014.6
20210922101615 73 96 0.0 0.0 0.00 0.01 0.00 1 1014.6
20210922100103 73 96 0.0 0.0 0.00 0.01 0.00 1 1014.5
20210922094545 73 96 0.0 0.0 0.00 0.01 0.00 1 1014.5
20210922093051 73 96 0.0 2.0 0.00 0.01 0.00 1 1014.6
20210922091641 73 96 0.0 2.0 0.00 0.01 0.00 1 1014.5
20210922090026 73 96 0.0 2.0 0.00 0.01 0.00 1 1014.7
20210922084541 73 96 0.0 1.0 0.00 0.01 0.00 1 1014.6
20210922083121 73 96 0.0 1.0 0.00 0.01 0.00 1 1014.6
20210922081523 73 96 0.0 1.0 0.00 0.01 0.00 1 1014.6
20210922080019 73 96 0.0 1.0 0.00 0.01 0.00 1 1014.7
20210922074512 73 96 0.0 0.0 0.00 0.01 0.00 1 1014.7
20210922073014 73 96 0.0 1.0 0.00 0.01 0.00 1 1014.7
20210922071502 73 96 0.0 1.0 0.00 0.01 0.00 1 1015.0
20210922070127 73 96 0.0 1.0 0.00 0.01 0.00 1 1015.1
20210922064652 73 96 0.0 0.0 0.00 0.01 0.00 1 1015.3
20210922063058 74 96 0.0 1.0 0.00 0.01 0.00 1 1015.5
20210922061635 74 96 0.0 0.0 0.00 0.01 0.00 1 1015.8
20210922060050 74 96 0.0 1.0 0.00 0.01 0.00 1 1016.0
20210922054557 74 96 0.0 0.0 0.00 0.01 0.00 1 1016.0
20210922053102 74 96 0.0 0.0 0.00 0.01 0.00 1 1016.0
20210922051540 74 96 0.0 0.0 0.00 0.01 0.00 1 1016.1
20210922050039 74 96 0.0 1.0 0.00 0.01 0.00 1 1016.4
20210922044520 74 96 0.0 0.0 0.00 0.01 0.01 1 1016.7
20210922043031 75 96 0.0 0.0 0.00 0.01 0.01 1 1016.7
20210922041521 75 96 0.0 1.0 0.00 0.01 0.01 1 1016.7
20210922040029 75 96 0.0 0.0 0.00 0.01 0.01 1 1016.9
20210922034512 76 96 0.0 0.0 0.00 0.01 0.01 1 1016.7
20210922033007 76 96 0.0 0.0 0.00 0.01 0.01 1 1016.7
20210922031511 76 96 0.0 0.0 0.00 0.01 0.01 1 1016.9
20210922030008 77 96 0.0 0.0 0.00 0.01 0.01 1 1016.9
20210922024503 77 96 0.0 0.0 0.00 0.01 0.01 1 1017.1
20210922023004 77 96 0.0 0.0 0.00 0.01 0.01 1 1017.3
20210922021638 78 96 0.0 1.0 0.00 0.01 0.01 1 1017.1
20210922020149 78 96 0.0 0.0 0.00 0.01 0.01 1 1017.2
20210922014639 79 96 0.0 0.0 0.00 0.01 0.01 1 1017.1
20210922013116 79 96 0.0 0.0 0.00 0.01 0.01 1 1017.1
20210922011628 79 96 0.0 0.0 0.00 0.01 0.01 1 1016.8
20210922010109 79 96 0.0 0.0 0.00 0.01 0.01 1 1016.5
20210922004616 80 96 0.0 0.0 0.00 0.01 0.01 1 1016.1
20210922003121 80 96 0.0 0.0 0.00 0.01 0.01 1 1016.0
20210922001629 81 96 0.0 0.0 0.00 0.01 0.01 1 1015.8
20210922000054 81 96 0.0 0.0 0.00 0.01 0.01 1 1015.7
20210921234536 81 96 0.0 0.0 0.00 0.01 0.01 1 1015.7
20210921233131 81 96 0.0 0.0 0.00 0.01 0.01 1 1015.6
20210921231601 82 96 0.0 0.0 0.00 0.01 0.01 1 1015.5
20210921230044 82 96 0.0 0.0 0.00 0.01 0.01 1 1015.4
20210921224547 84 96 0.0 2.0 0.00 0.01 0.01 26 1015.4
20210921223033 85 155 0.0 3.0 0.00 0.01 0.01 16 1015.3
20210921221536 85 55 0.0 3.0 0.00 0.01 0.01 16 1015.2
20210921220024 86 90 1.0 3.0 0.00 0.01 0.01 24 1015.3
20210921214536 86 90 0.0 2.0 0.00 0.01 0.01 20 1015.4
20210921213013 85 55 1.0 7.0 0.00 0.01 0.01 17 1015.5
20210921211507 85 104 2.0 5.0 0.00 0.01 0.01 17 1015.6
20210921210146 84 86 1.0 6.0 0.00 0.01 0.01 1 1015.7
20210921204701 83 82 1.0 3.0 0.00 0.01 0.01 1 1015.7
20210921203114 84 88 1.0 9.0 0.00 0.01 0.01 4 1015.9
20210921201549 89 68 3.0 9.0 0.00 0.01 0.01 40 1015.8
20210921200055 88 87 0.0 2.0 0.00 0.01 0.01 33 1015.8
20210921194541 86 237 0.0 2.0 0.00 0.01 0.01 21 1016.0
20210921193137 88 197 2.0 4.0 0.00 0.01 0.01 46 1016.2
20210921191548 87 208 0.0 5.0 0.00 0.01 0.01 32 1016.4
20210921190025 88 180 1.0 4.0 0.00 0.01 0.01 40 1016.5
20210921184537 86 256 0.0 3.0 0.00 0.01 0.01 22 1016.8
20210921183022 87 243 1.0 4.0 0.00 0.01 0.01 37 1017.1
20210921181510 88 232 1.0 4.0 0.00 0.01 0.01 31 1017.2
20210921180014 86 183 2.0 4.0 0.00 0.01 0.01 27 1017.6
20210921174502 86 300 2.0 3.0 0.00 0.01 0.01 22 1017.8
20210921173132 85 252 0.0 3.0 0.00 0.01 0.01 13 1018.3
20210921171612 86 298 1.0 7.0 0.00 0.01 0.01 1 1018.3
20210921170112 85 246 1.0 4.0 0.00 0.01 0.01 8 1018.5
20210921164611 85 276 1.0 4.0 0.00 0.01 0.01 1 1018.5
20210921163113 85 226 2.0 5.0 0.00 0.01 0.01 1 1018.6
20210921161610 84 245 1.0 7.0 0.00 0.01 0.01 1 1018.8
20210921160046 83 211 1.0 4.0 0.00 0.01 0.01 1 1018.8
20210921154544 83 218 1.0 4.0 0.00 0.01 0.01 1 1018.9
20210921153038 81 264 2.0 4.0 0.00 0.01 0.01 1 1019.0
20210921151522 80 297 0.0 2.0 0.00 0.01 0.01 1 1018.9
20210921150043 81 300 3.0 6.0 0.00 0.01 0.01 1 1018.8
20210921144518 79 218 0.0 4.0 0.00 0.01 0.01 1 1018.7